sensor_id;sensor_type;location;lat;lon;timestamp;pressure;altitude;pressure_sealevel;temperature;humidity
58686;BME280;44465;53.206;-6.106;2022-07-15T00:01:42;102516.09;;;24.50;49.07
58686;BME280;44465;53.206;-6.106;2022-07-15T00:04:07;102512.53;;;24.50;49.27
58686;BME280;44465;53.206;-6.106;2022-07-15T00:06:33;102509.78;;;24.51;49.41
58686;BME280;44465;53.206;-6.106;2022-07-15T00:08:58;102508.09;;;24.48;49.08
58686;BME280;44465;53.206;-6.106;2022-07-15T00:11:24;102519.69;;;24.51;49.39
58686;BME280;44465;53.206;-6.106;2022-07-15T00:13:49;102516.06;;;24.52;49.38
58686;BME280;44465;53.206;-6.106;2022-07-15T00:16:15;102525.88;;;24.53;49.24
58686;BME280;44465;53.206;-6.106;2022-07-15T00:18:41;102520.41;;;24.54;49.48
58686;BME280;44465;53.206;-6.106;2022-07-15T00:21:06;102515.22;;;24.50;49.38
58686;BME280;44465;53.206;-6.106;2022-07-15T00:23:32;102515.22;;;24.50;49.33
58686;BME280;44465;53.206;-6.106;2022-07-15T00:25:58;102517.84;;;24.51;49.39
58686;BME280;44465;53.206;-6.106;2022-07-15T00:28:23;102516.06;;;24.52;49.75
58686;BME280;44465;53.206;-6.106;2022-07-15T00:30:50;102507.28;;;24.46;49.60
58686;BME280;44465;53.206;-6.106;2022-07-15T00:33:16;102507.16;;;24.50;49.76
58686;BME280;44465;53.206;-6.106;2022-07-15T00:35:41;102501.06;;;24.44;49.65
58686;BME280;44465;53.206;-6.106;2022-07-15T00:38:08;102505.31;;;24.50;49.83
58686;BME280;44465;53.206;-6.106;2022-07-15T00:40:48;102508.91;;;24.51;49.63
58686;BME280;44465;53.206;-6.106;2022-07-15T00:43:14;102502.59;;;24.52;49.60
58686;BME280;44465;53.206;-6.106;2022-07-15T00:45:44;102498.19;;;24.49;49.44
58686;BME280;44465;53.206;-6.106;2022-07-15T00:48:10;102497.97;;;24.54;49.69
58686;BME280;44465;53.206;-6.106;2022-07-15T00:50:36;102502.44;;;24.55;49.39
58686;BME280;44465;53.206;-6.106;2022-07-15T00:53:12;102492.59;;;24.54;49.38
58686;BME280;44465;53.206;-6.106;2022-07-15T00:55:43;102484.50;;;24.54;49.72
58686;BME280;44465;53.206;-6.106;2022-07-15T00:58:15;102485.41;;;24.54;49.56
58686;BME280;44465;53.206;-6.106;2022-07-15T01:00:43;102480.88;;;24.55;49.69
58686;BME280;44465;53.206;-6.106;2022-07-15T01:03:08;102468.34;;;24.54;49.62
58686;BME280;44465;53.206;-6.106;2022-07-15T01:05:34;102465.63;;;24.55;49.49
58686;BME280;44465;53.206;-6.106;2022-07-15T01:08:01;102458.56;;;24.53;49.94
58686;BME280;44465;53.206;-6.106;2022-07-15T01:10:27;102456.66;;;24.55;49.59
58686;BME280;44465;53.206;-6.106;2022-07-15T01:12:52;102456.00;;;24.50;49.64
58686;BME280;44465;53.206;-6.106;2022-07-15T01:15:25;102455.88;;;24.53;49.57
58686;BME280;44465;53.206;-6.106;2022-07-15T01:17:50;102456.72;;;24.53;49.89
58686;BME280;44465;53.206;-6.106;2022-07-15T01:20:16;102447.81;;;24.51;50.04
58686;BME280;44465;53.206;-6.106;2022-07-15T01:22:59;102444.28;;;24.51;49.77
58686;BME280;44465;53.206;-6.106;2022-07-15T01:25:32;102448.72;;;24.52;49.99
58686;BME280;44465;53.206;-6.106;2022-07-15T01:27:59;102439.72;;;24.53;49.79
58686;BME280;44465;53.206;-6.106;2022-07-15T01:30:27;102430.66;;;24.54;49.87
58686;BME280;44465;53.206;-6.106;2022-07-15T01:32:52;102421.78;;;24.52;49.64
58686;BME280;44465;53.206;-6.106;2022-07-15T01:35:18;102423.47;;;24.54;49.50
58686;BME280;44465;53.206;-6.106;2022-07-15T01:37:46;102431.47;;;24.56;49.78
58686;BME280;44465;53.206;-6.106;2022-07-15T01:40:12;102428.84;;;24.54;49.78
58686;BME280;44465;53.206;-6.106;2022-07-15T01:42:39;102418.94;;;24.55;49.38
58686;BME280;44465;53.206;-6.106;2022-07-15T01:45:07;102422.53;;;24.55;49.78
58686;BME280;44465;53.206;-6.106;2022-07-15T01:47:41;102431.53;;;24.54;49.89
58686;BME280;44465;53.206;-6.106;2022-07-15T01:50:07;102423.38;;;24.56;49.73
58686;BME280;44465;53.206;-6.106;2022-07-15T01:52:51;102441.44;;;24.54;49.56
58686;BME280;44465;53.206;-6.106;2022-07-15T01:55:17;102443.19;;;24.55;49.94
58686;BME280;44465;53.206;-6.106;2022-07-15T01:57:43;102433.56;;;24.49;49.94
58686;BME280;44465;53.206;-6.106;2022-07-15T02:00:09;102437.88;;;24.53;49.73
58686;BME280;44465;53.206;-6.106;2022-07-15T02:02:43;102437.94;;;24.52;50.03
58686;BME280;44465;53.206;-6.106;2022-07-15T02:05:09;102431.66;;;24.51;50.15
58686;BME280;44465;53.206;-6.106;2022-07-15T02:07:35;102436.19;;;24.51;50.01
58686;BME280;44465;53.206;-6.106;2022-07-15T02:10:03;102427.19;;;24.52;50.20
58686;BME280;44465;53.206;-6.106;2022-07-15T02:12:30;102428.97;;;24.51;50.03
58686;BME280;44465;53.206;-6.106;2022-07-15T02:14:55;102430.72;;;24.52;49.86
58686;BME280;44465;53.206;-6.106;2022-07-15T02:17:24;102425.25;;;24.54;49.86
58686;BME280;44465;53.206;-6.106;2022-07-15T02:19:50;102420.78;;;24.54;49.97
58686;BME280;44465;53.206;-6.106;2022-07-15T02:22:15;102422.56;;;24.54;49.79
58686;BME280;44465;53.206;-6.106;2022-07-15T02:24:41;102410.84;;;24.55;49.80
58686;BME280;44465;53.206;-6.106;2022-07-15T02:27:08;102418.53;;;24.43;49.88
58686;BME280;44465;53.206;-6.106;2022-07-15T02:29:34;102421.91;;;24.48;50.01
58686;BME280;44465;53.206;-6.106;2022-07-15T02:31:59;102414.66;;;24.51;49.94
58686;BME280;44465;53.206;-6.106;2022-07-15T02:34:25;102418.16;;;24.53;49.94
58686;BME280;44465;53.206;-6.106;2022-07-15T02:36:51;102415.47;;;24.53;49.74
58686;BME280;44465;53.206;-6.106;2022-07-15T02:39:16;102410.94;;;24.53;49.93
58686;BME280;44465;53.206;-6.106;2022-07-15T02:41:42;102419.22;;;24.48;49.84
58686;BME280;44465;53.206;-6.106;2022-07-15T02:44:10;102420.03;;;24.51;49.97
58686;BME280;44465;53.206;-6.106;2022-07-15T02:46:37;102413.75;;;24.50;49.91
58686;BME280;44465;53.206;-6.106;2022-07-15T02:49:03;102419.09;;;24.52;50.19
58686;BME280;44465;53.206;-6.106;2022-07-15T02:51:29;102420.97;;;24.50;50.22
58686;BME280;44465;53.206;-6.106;2022-07-15T02:53:54;102422.78;;;24.49;50.39
58686;BME280;44465;53.206;-6.106;2022-07-15T02:56:22;102411.16;;;24.48;50.29
58686;BME280;44465;53.206;-6.106;2022-07-15T02:58:48;102425.44;;;24.51;50.02
58686;BME280;44465;53.206;-6.106;2022-07-15T03:01:14;102411.97;;;24.51;50.14
58686;BME280;44465;53.206;-6.106;2022-07-15T03:03:40;102416.41;;;24.52;50.14
58686;BME280;44465;53.206;-6.106;2022-07-15T03:06:09;102412.16;;;24.46;49.77
58686;BME280;44465;53.206;-6.106;2022-07-15T03:08:35;102424.41;;;24.53;50.08
58686;BME280;44465;53.206;-6.106;2022-07-15T03:11:01;102418.16;;;24.53;49.96
58686;BME280;44465;53.206;-6.106;2022-07-15T03:13:26;102417.25;;;24.52;50.13
58686;BME280;44465;53.206;-6.106;2022-07-15T03:15:52;102412.78;;;24.53;50.07
58686;BME280;44465;53.206;-6.106;2022-07-15T03:18:18;102406.50;;;24.52;49.90
58686;BME280;44465;53.206;-6.106;2022-07-15T03:20:43;102403.88;;;24.51;50.10
58686;BME280;44465;53.206;-6.106;2022-07-15T03:23:11;102394.78;;;24.53;50.02
58686;BME280;44465;53.206;-6.106;2022-07-15T03:25:37;102409.19;;;24.52;50.15
58686;BME280;44465;53.206;-6.106;2022-07-15T03:28:07;102393.94;;;24.53;50.00
58686;BME280;44465;53.206;-6.106;2022-07-15T03:30:36;102402.13;;;24.50;49.87
58686;BME280;44465;53.206;-6.106;2022-07-15T03:33:01;102408.38;;;24.50;50.17
58686;BME280;44465;53.206;-6.106;2022-07-15T03:35:27;102398.50;;;24.51;50.41
58686;BME280;44465;53.206;-6.106;2022-07-15T03:37:52;102393.16;;;24.49;50.29
58686;BME280;44465;53.206;-6.106;2022-07-15T03:40:18;102396.75;;;24.50;50.24
58686;BME280;44465;53.206;-6.106;2022-07-15T03:42:43;102383.41;;;24.46;50.38
58686;BME280;44465;53.206;-6.106;2022-07-15T03:45:09;102385.16;;;24.47;50.40
58686;BME280;44465;53.206;-6.106;2022-07-15T03:47:35;102394.06;;;24.50;50.22
58686;BME280;44465;53.206;-6.106;2022-07-15T03:50:06;102385.06;;;24.49;49.94
58686;BME280;44465;53.206;-6.106;2022-07-15T03:52:34;102394.91;;;24.50;50.26
58686;BME280;44465;53.206;-6.106;2022-07-15T03:55:00;102380.59;;;24.50;50.21
58686;BME280;44465;53.206;-6.106;2022-07-15T03:57:25;102372.63;;;24.46;49.98
58686;BME280;44465;53.206;-6.106;2022-07-15T03:59:52;102375.19;;;24.50;50.19
58686;BME280;44465;53.206;-6.106;2022-07-15T04:02:17;102372.50;;;24.50;50.23
58686;BME280;44465;53.206;-6.106;2022-07-15T04:04:43;102376.94;;;24.51;49.90
58686;BME280;44465;53.206;-6.106;2022-07-15T04:07:09;102370.69;;;24.50;50.28
58686;BME280;44465;53.206;-6.106;2022-07-15T04:09:34;102370.69;;;24.50;50.02
58686;BME280;44465;53.206;-6.106;2022-07-15T04:12:00;102372.50;;;24.50;50.09
58686;BME280;44465;53.206;-6.106;2022-07-15T04:14:26;102369.00;;;24.47;50.30
58686;BME280;44465;53.206;-6.106;2022-07-15T04:16:51;102369.00;;;24.47;50.40
58686;BME280;44465;53.206;-6.106;2022-07-15T04:19:37;102366.22;;;24.49;50.36
58686;BME280;44465;53.206;-6.106;2022-07-15T04:22:03;102365.38;;;24.48;50.28
58686;BME280;44465;53.206;-6.106;2022-07-15T04:24:36;102368.06;;;24.48;50.04
58686;BME280;44465;53.206;-6.106;2022-07-15T04:27:02;102365.44;;;24.47;50.22
58686;BME280;44465;53.206;-6.106;2022-07-15T04:29:27;102362.81;;;24.45;50.10
58686;BME280;44465;53.206;-6.106;2022-07-15T04:31:54;102372.50;;;24.50;50.09
58686;BME280;44465;53.206;-6.106;2022-07-15T04:34:26;102369.81;;;24.50;50.17
58686;BME280;44465;53.206;-6.106;2022-07-15T04:36:51;102367.19;;;24.48;49.85
58686;BME280;44465;53.206;-6.106;2022-07-15T04:39:17;102362.69;;;24.48;50.23
58686;BME280;44465;53.206;-6.106;2022-07-15T04:41:42;102364.44;;;24.50;50.33
58686;BME280;44465;53.206;-6.106;2022-07-15T04:44:08;102360.84;;;24.49;50.16
58686;BME280;44465;53.206;-6.106;2022-07-15T04:46:33;102359.91;;;24.50;50.38
58686;BME280;44465;53.206;-6.106;2022-07-15T04:49:23;102357.38;;;24.47;50.25
58686;BME280;44465;53.206;-6.106;2022-07-15T04:52:07;102357.28;;;24.48;50.35
58686;BME280;44465;53.206;-6.106;2022-07-15T04:54:34;102352.78;;;24.49;50.18
58686;BME280;44465;53.206;-6.106;2022-07-15T04:57:00;102351.91;;;24.48;50.50
58686;BME280;44465;53.206;-6.106;2022-07-15T04:59:26;102339.69;;;24.41;50.16
58686;BME280;44465;53.206;-6.106;2022-07-15T05:01:52;102353.78;;;24.46;50.45
58686;BME280;44465;53.206;-6.106;2022-07-15T05:04:32;102350.28;;;24.44;50.68
58686;BME280;44465;53.206;-6.106;2022-07-15T05:06:57;102346.81;;;24.42;50.28
58686;BME280;44465;53.206;-6.106;2022-07-15T05:09:23;102351.19;;;24.45;50.75
58686;BME280;44465;53.206;-6.106;2022-07-15T05:11:49;102339.69;;;24.41;50.84
58686;BME280;44465;53.206;-6.106;2022-07-15T05:14:16;102343.16;;;24.43;50.45
58686;BME280;44465;53.206;-6.106;2022-07-15T05:16:42;102342.28;;;24.43;50.49
58686;BME280;44465;53.206;-6.106;2022-07-15T05:19:07;102349.50;;;24.42;50.73
58686;BME280;44465;53.206;-6.106;2022-07-15T05:21:33;102337.75;;;24.43;50.64
58686;BME280;44465;53.206;-6.106;2022-07-15T05:23:59;102335.03;;;24.45;50.43
58686;BME280;44465;53.206;-6.106;2022-07-15T05:26:25;102334.09;;;24.46;50.20
58686;BME280;44465;53.206;-6.106;2022-07-15T05:28:51;102336.78;;;24.46;50.24
58686;BME280;44465;53.206;-6.106;2022-07-15T05:31:16;102332.25;;;24.46;50.22
58686;BME280;44465;53.206;-6.106;2022-07-15T05:33:45;102337.63;;;24.46;50.03
58686;BME280;44465;53.206;-6.106;2022-07-15T05:36:11;102332.25;;;24.46;50.15
58686;BME280;44465;53.206;-6.106;2022-07-15T05:38:40;102329.56;;;24.46;49.96
58686;BME280;44465;53.206;-6.106;2022-07-15T05:41:05;102329.50;;;24.48;50.23
58686;BME280;44465;53.206;-6.106;2022-07-15T05:43:31;102335.03;;;24.45;50.16
58686;BME280;44465;53.206;-6.106;2022-07-15T05:45:57;102338.44;;;24.48;50.29
58686;BME280;44465;53.206;-6.106;2022-07-15T05:48:27;102328.63;;;24.47;49.83
58686;BME280;44465;53.206;-6.106;2022-07-15T05:50:54;102325.84;;;24.49;50.10
58686;BME280;44465;53.206;-6.106;2022-07-15T05:53:20;102340.19;;;24.50;50.10
58686;BME280;44465;53.206;-6.106;2022-07-15T05:55:46;102334.81;;;24.50;49.83
58686;BME280;44465;53.206;-6.106;2022-07-15T05:58:16;102328.53;;;24.49;50.22
58686;BME280;44465;53.206;-6.106;2022-07-15T06:00:42;102335.75;;;24.48;49.73
58686;BME280;44465;53.206;-6.106;2022-07-15T06:03:07;102334.72;;;24.51;49.90
58686;BME280;44465;53.206;-6.106;2022-07-15T06:05:38;102339.25;;;24.51;49.93
58686;BME280;44465;53.206;-6.106;2022-07-15T06:08:04;102342.88;;;24.50;50.26
58686;BME280;44465;53.206;-6.106;2022-07-15T06:10:35;102345.66;;;24.48;50.07
58686;BME280;44465;53.206;-6.106;2022-07-15T06:13:01;102344.78;;;24.47;50.01
58686;BME280;44465;53.206;-6.106;2022-07-15T06:15:26;102342.06;;;24.47;49.93
58686;BME280;44465;53.206;-6.106;2022-07-15T06:17:52;102338.53;;;24.47;50.23
58686;BME280;44465;53.206;-6.106;2022-07-15T06:20:22;102340.28;;;24.48;50.42
58686;BME280;44465;53.206;-6.106;2022-07-15T06:22:48;102342.88;;;24.50;50.09
58686;BME280;44465;53.206;-6.106;2022-07-15T06:25:13;102342.88;;;24.50;50.34
58686;BME280;44465;53.206;-6.106;2022-07-15T06:27:41;102354.31;;;24.55;50.39
58686;BME280;44465;53.206;-6.106;2022-07-15T06:30:07;102349.84;;;24.54;50.63
58686;BME280;44465;53.206;-6.106;2022-07-15T06:32:33;102358.03;;;24.52;50.40
58686;BME280;44465;53.206;-6.106;2022-07-15T06:34:59;102344.69;;;24.49;50.13
58686;BME280;44465;53.206;-6.106;2022-07-15T06:37:25;102351.78;;;24.52;50.13
58686;BME280;44465;53.206;-6.106;2022-07-15T06:39:50;102348.16;;;24.53;49.96
58686;BME280;44465;53.206;-6.106;2022-07-15T06:42:19;102355.25;;;24.54;50.07
58686;BME280;44465;53.206;-6.106;2022-07-15T06:44:57;102358.03;;;24.52;50.18
58686;BME280;44465;53.206;-6.106;2022-07-15T06:47:22;102371.28;;;24.57;50.36
58686;BME280;44465;53.206;-6.106;2022-07-15T06:49:48;102364.13;;;24.56;50.05
58686;BME280;44465;53.206;-6.106;2022-07-15T06:52:15;102356.06;;;24.56;50.38
58686;BME280;44465;53.206;-6.106;2022-07-15T06:54:41;102334.94;;;24.46;50.22
58686;BME280;44465;53.206;-6.106;2022-07-15T06:57:07;102352.56;;;24.54;50.44
58686;BME280;44465;53.206;-6.106;2022-07-15T06:59:34;102344.47;;;24.54;50.57
58686;BME280;44465;53.206;-6.106;2022-07-15T07:02:00;102343.47;;;24.56;50.33
58686;BME280;44465;53.206;-6.106;2022-07-15T07:04:25;102339.97;;;24.54;50.59
58686;BME280;44465;53.206;-6.106;2022-07-15T07:06:51;102339.09;;;24.54;50.39
58686;BME280;44465;53.206;-6.106;2022-07-15T07:09:17;102348.16;;;24.53;50.28
58686;BME280;44465;53.206;-6.106;2022-07-15T07:11:42;102336.59;;;24.49;50.14
58686;BME280;44465;53.206;-6.106;2022-07-15T07:14:08;102341.88;;;24.52;50.48
58686;BME280;44465;53.206;-6.106;2022-07-15T07:16:33;102349.84;;;24.54;50.24
58686;BME280;44465;53.206;-6.106;2022-07-15T07:18:59;102346.22;;;24.55;50.42
58686;BME280;44465;53.206;-6.106;2022-07-15T07:21:24;102339.91;;;24.56;50.42
58686;BME280;44465;53.206;-6.106;2022-07-15T07:23:50;102339.97;;;24.54;50.17
58686;BME280;44465;53.206;-6.106;2022-07-15T07:26:16;102342.59;;;24.56;50.30
58686;BME280;44465;53.206;-6.106;2022-07-15T07:28:42;102343.53;;;24.55;50.07
58686;BME280;44465;53.206;-6.106;2022-07-15T07:31:09;102347.13;;;24.55;50.16
58686;BME280;44465;53.206;-6.106;2022-07-15T07:33:36;102345.38;;;24.54;50.05
58686;BME280;44465;53.206;-6.106;2022-07-15T07:36:03;102341.78;;;24.54;50.05
58686;BME280;44465;53.206;-6.106;2022-07-15T07:38:29;102351.63;;;24.55;50.07
58686;BME280;44465;53.206;-6.106;2022-07-15T07:40:55;102341.88;;;24.52;50.01
58686;BME280;44465;53.206;-6.106;2022-07-15T07:43:20;102349.84;;;24.54;50.19
58686;BME280;44465;53.206;-6.106;2022-07-15T07:45:46;102355.13;;;24.57;50.08
58686;BME280;44465;53.206;-6.106;2022-07-15T07:48:12;102350.88;;;24.51;50.19
58686;BME280;44465;53.206;-6.106;2022-07-15T07:50:38;102335.06;;;24.43;50.01
58686;BME280;44465;53.206;-6.106;2022-07-15T07:53:04;102341.13;;;24.48;50.30
58686;BME280;44465;53.206;-6.106;2022-07-15T07:55:29;102338.44;;;24.48;50.17
58686;BME280;44465;53.206;-6.106;2022-07-15T07:57:57;102343.81;;;24.48;50.07
58686;BME280;44465;53.206;-6.106;2022-07-15T08:00:25;102343.75;;;24.50;49.99
58686;BME280;44465;53.206;-6.106;2022-07-15T08:02:52;102337.63;;;24.46;50.11
58686;BME280;44465;53.206;-6.106;2022-07-15T08:05:18;102344.63;;;24.51;50.23
58686;BME280;44465;53.206;-6.106;2022-07-15T08:07:43;102348.19;;;24.51;49.93
58686;BME280;44465;53.206;-6.106;2022-07-15T08:10:10;102338.38;;;24.50;49.65
58686;BME280;44465;53.206;-6.106;2022-07-15T08:12:37;102336.59;;;24.49;49.81
58686;BME280;44465;53.206;-6.106;2022-07-15T08:15:09;102347.34;;;24.51;49.99
58686;BME280;44465;53.206;-6.106;2022-07-15T08:17:36;102341.00;;;24.52;49.79
58686;BME280;44465;53.206;-6.106;2022-07-15T08:20:05;102342.88;;;24.50;49.81
58686;BME280;44465;53.206;-6.106;2022-07-15T08:22:31;102338.38;;;24.50;49.81
58686;BME280;44465;53.206;-6.106;2022-07-15T08:24:56;102325.78;;;24.51;49.87
58686;BME280;44465;53.206;-6.106;2022-07-15T08:27:22;102332.03;;;24.51;50.01
58686;BME280;44465;53.206;-6.106;2022-07-15T08:29:47;102336.47;;;24.52;49.80
58686;BME280;44465;53.206;-6.106;2022-07-15T08:32:13;102322.22;;;24.50;49.75
58686;BME280;44465;53.206;-6.106;2022-07-15T08:34:38;102326.88;;;24.46;49.87
58686;BME280;44465;53.206;-6.106;2022-07-15T08:37:06;102343.81;;;24.48;49.73
58686;BME280;44465;53.206;-6.106;2022-07-15T08:39:32;102327.88;;;24.44;49.79
58686;BME280;44465;53.206;-6.106;2022-07-15T08:41:57;102324.16;;;24.46;49.53
58686;BME280;44465;53.206;-6.106;2022-07-15T08:44:23;102331.44;;;24.44;49.61
58686;BME280;44465;53.206;-6.106;2022-07-15T08:46:49;102335.88;;;24.45;49.62
58686;BME280;44465;53.206;-6.106;2022-07-15T08:49:16;102336.78;;;24.46;49.77
58686;BME280;44465;53.206;-6.106;2022-07-15T08:51:45;102337.63;;;24.46;49.78
58686;BME280;44465;53.206;-6.106;2022-07-15T08:54:11;102334.88;;;24.48;50.07
58686;BME280;44465;53.206;-6.106;2022-07-15T08:56:37;102327.81;;;24.45;49.75
58686;BME280;44465;53.206;-6.106;2022-07-15T08:59:04;102340.19;;;24.50;49.75
58686;BME280;44465;53.206;-6.106;2022-07-15T09:01:31;102342.88;;;24.50;49.59
58686;BME280;44465;53.206;-6.106;2022-07-15T09:03:57;102342.88;;;24.50;49.85
58686;BME280;44465;53.206;-6.106;2022-07-15T09:06:49;102351.09;;;24.46;49.77
58686;BME280;44465;53.206;-6.106;2022-07-15T09:09:30;102352.78;;;24.49;49.94
58686;BME280;44465;53.206;-6.106;2022-07-15T09:11:59;102353.66;;;24.50;50.22
58686;BME280;44465;53.206;-6.106;2022-07-15T09:14:26;102346.38;;;24.52;49.67
58686;BME280;44465;53.206;-6.106;2022-07-15T09:17:26;102346.59;;;24.47;49.72
58686;BME280;44465;53.206;-6.106;2022-07-15T09:22:27;102349.22;;;24.48;49.41
58686;BME280;44465;53.206;-6.106;2022-07-15T09:25:10;102359.25;;;24.45;49.59
58686;BME280;44465;53.206;-6.106;2022-07-15T09:27:38;102355.66;;;24.44;49.39
58686;BME280;44465;53.206;-6.106;2022-07-15T09:30:25;102357.44;;;24.45;49.54
58686;BME280;44465;53.206;-6.106;2022-07-15T09:33:12;102362.75;;;24.47;49.52
58686;BME280;44465;53.206;-6.106;2022-07-15T09:38:47;102344.78;;;24.47;49.62
58686;BME280;44465;53.206;-6.106;2022-07-15T09:41:20;102353.66;;;24.50;49.78
58686;BME280;44465;53.206;-6.106;2022-07-15T09:44:05;102359.03;;;24.50;49.56
58686;BME280;44465;53.206;-6.106;2022-07-15T09:46:43;102355.41;;;24.51;49.64
58686;BME280;44465;53.206;-6.106;2022-07-15T09:49:11;102368.88;;;24.51;49.56
58686;BME280;44465;53.206;-6.106;2022-07-15T09:54:25;102350.03;;;24.51;49.57
58686;BME280;44465;53.206;-6.106;2022-07-15T09:56:51;102356.22;;;24.53;49.75
58686;BME280;44465;53.206;-6.106;2022-07-15T09:59:18;102350.75;;;24.54;49.35
58686;BME280;44465;53.206;-6.106;2022-07-15T10:01:44;102349.00;;;24.53;49.54
58686;BME280;44465;53.206;-6.106;2022-07-15T10:04:14;102349.84;;;24.54;49.86
58686;BME280;44465;53.206;-6.106;2022-07-15T10:06:42;102348.16;;;24.53;49.63
58686;BME280;44465;53.206;-6.106;2022-07-15T10:09:07;102347.34;;;24.51;49.33
58686;BME280;44465;53.206;-6.106;2022-07-15T10:11:38;102341.94;;;24.51;49.61
58686;BME280;44465;53.206;-6.106;2022-07-15T10:14:35;102349.28;;;24.47;49.51
58686;BME280;44465;53.206;-6.106;2022-07-15T10:28:51;102343.03;;;24.46;49.65
58686;BME280;44465;53.206;-6.106;2022-07-15T10:31:26;102345.50;;;24.51;49.74
58686;BME280;44465;53.206;-6.106;2022-07-15T10:39:20;102355.25;;;24.54;49.75
58686;BME280;44465;53.206;-6.106;2022-07-15T10:41:57;102356.28;;;24.51;49.57
58686;BME280;44465;53.206;-6.106;2022-07-15T10:44:28;102360.63;;;24.54;49.53
58686;BME280;44465;53.206;-6.106;2022-07-15T10:49:39;102354.31;;;24.55;49.47
58686;BME280;44465;53.206;-6.106;2022-07-15T10:54:46;102357.88;;;24.55;49.41
58686;BME280;44465;53.206;-6.106;2022-07-15T10:57:13;102364.13;;;24.56;49.48
58686;BME280;44465;53.206;-6.106;2022-07-15T10:59:55;102354.31;;;24.55;49.67
58686;BME280;44465;53.206;-6.106;2022-07-15T11:02:24;102358.75;;;24.56;49.52
58686;BME280;44465;53.206;-6.106;2022-07-15T11:04:51;102357.00;;;24.55;49.33
58686;BME280;44465;53.206;-6.106;2022-07-15T11:07:18;102356.00;;;24.57;49.54
58686;BME280;44465;53.206;-6.106;2022-07-15T11:12:21;102362.25;;;24.58;49.38
58686;BME280;44465;53.206;-6.106;2022-07-15T11:14:51;102363.91;;;24.60;49.46
58686;BME280;44465;53.206;-6.106;2022-07-15T11:17:22;102360.38;;;24.60;49.34
58686;BME280;44465;53.206;-6.106;2022-07-15T11:19:50;102368.38;;;24.61;49.54
58686;BME280;44465;53.206;-6.106;2022-07-15T11:22:18;102363.91;;;24.60;49.38
58686;BME280;44465;53.206;-6.106;2022-07-15T11:24:44;102361.22;;;24.60;49.34
58686;BME280;44465;53.206;-6.106;2022-07-15T11:27:10;102362.13;;;24.61;49.67
58686;BME280;44465;53.206;-6.106;2022-07-15T11:29:43;102362.97;;;24.61;49.41
58686;BME280;44465;53.206;-6.106;2022-07-15T11:32:09;102366.56;;;24.62;49.45
58686;BME280;44465;53.206;-6.106;2022-07-15T11:34:39;102369.25;;;24.62;49.64
58686;BME280;44465;53.206;-6.106;2022-07-15T11:37:06;102369.25;;;24.62;49.65
58686;BME280;44465;53.206;-6.106;2022-07-15T11:39:31;102364.81;;;24.61;49.49
58686;BME280;44465;53.206;-6.106;2022-07-15T11:41:58;102375.50;;;24.62;49.26
58686;BME280;44465;53.206;-6.106;2022-07-15T11:44:47;102374.66;;;24.62;49.55
58686;BME280;44465;53.206;-6.106;2022-07-15T11:47:12;102367.50;;;24.61;49.57
58686;BME280;44465;53.206;-6.106;2022-07-15T11:49:38;102369.41;;;24.59;49.66
58686;BME280;44465;53.206;-6.106;2022-07-15T11:52:06;102362.13;;;24.61;49.50
58686;BME280;44465;53.206;-6.106;2022-07-15T11:54:37;102368.31;;;24.63;49.28
58686;BME280;44465;53.206;-6.106;2022-07-15T11:57:05;102365.63;;;24.63;49.48
58686;BME280;44465;53.206;-6.106;2022-07-15T11:59:32;102364.59;;;24.66;49.62
58686;BME280;44465;53.206;-6.106;2022-07-15T12:02:08;102365.47;;;24.66;49.60
58686;BME280;44465;53.206;-6.106;2022-07-15T12:04:34;102370.00;;;24.66;49.78
58686;BME280;44465;53.206;-6.106;2022-07-15T12:07:00;102369.00;;;24.68;49.31
58686;BME280;44465;53.206;-6.106;2022-07-15T12:09:26;102372.59;;;24.69;49.43
58686;BME280;44465;53.206;-6.106;2022-07-15T12:12:03;102369.91;;;24.67;49.64
58686;BME280;44465;53.206;-6.106;2022-07-15T12:14:28;102362.66;;;24.69;49.45
58686;BME280;44465;53.206;-6.106;2022-07-15T12:16:54;102352.84;;;24.68;49.40
58686;BME280;44465;53.206;-6.106;2022-07-15T12:19:22;102363.47;;;24.71;49.39
58686;BME280;44465;53.206;-6.106;2022-07-15T12:21:53;102367.97;;;24.71;49.71
58686;BME280;44465;53.206;-6.106;2022-07-15T12:24:22;102363.59;;;24.68;49.33
58686;BME280;44465;53.206;-6.106;2022-07-15T12:29:22;102367.13;;;24.70;49.66
58686;BME280;44465;53.206;-6.106;2022-07-15T12:32:08;102361.81;;;24.67;49.42
58686;BME280;44465;53.206;-6.106;2022-07-15T12:37:22;102366.22;;;24.70;49.46
58686;BME280;44465;53.206;-6.106;2022-07-15T12:42:20;102361.59;;;24.73;49.73
58686;BME280;44465;53.206;-6.106;2022-07-15T12:44:46;102351.69;;;24.74;49.56
58686;BME280;44465;53.206;-6.106;2022-07-15T12:47:29;102366.00;;;24.74;49.47
58686;BME280;44465;53.206;-6.106;2022-07-15T12:49:54;102369.50;;;24.76;49.74
58686;BME280;44465;53.206;-6.106;2022-07-15T12:52:30;102365.06;;;24.75;49.42
58686;BME280;44465;53.206;-6.106;2022-07-15T12:54:57;102362.31;;;24.77;49.61
58686;BME280;44465;53.206;-6.106;2022-07-15T12:57:34;102380.22;;;24.78;49.39
58686;BME280;44465;53.206;-6.106;2022-07-15T13:00:05;102375.69;;;24.78;49.44
58686;BME280;44465;53.206;-6.106;2022-07-15T13:02:32;102367.53;;;24.80;49.52
58686;BME280;44465;53.206;-6.106;2022-07-15T13:04:58;102365.75;;;24.81;49.60
58686;BME280;44465;53.206;-6.106;2022-07-15T13:07:24;102377.47;;;24.80;49.38
58686;BME280;44465;53.206;-6.106;2022-07-15T13:09:50;102374.91;;;24.76;49.61
58686;BME280;44465;53.206;-6.106;2022-07-15T13:12:16;102379.22;;;24.81;49.44
58686;BME280;44465;53.206;-6.106;2022-07-15T13:14:41;102381.91;;;24.81;49.51
58686;BME280;44465;53.206;-6.106;2022-07-15T13:17:07;102382.84;;;24.80;49.64
58686;BME280;44465;53.206;-6.106;2022-07-15T13:19:33;102386.34;;;24.82;49.58
58686;BME280;44465;53.206;-6.106;2022-07-15T13:22:01;102392.53;;;24.84;49.64
58686;BME280;44465;53.206;-6.106;2022-07-15T13:24:27;102387.94;;;24.86;49.55
58686;BME280;44465;53.206;-6.106;2022-07-15T13:26:53;102385.44;;;24.81;49.40